^^
Saratoga-Weather Station Historical Data
Daily Summary for April 18, 2020 Units:  English    Metric   Both
Daily Weekly Monthly Yearly Custom
  High: Low: Average:
Temperature: 46.9 °F 40.8 °F 43.7 °F
Dew Point: 40.3 °F 37.2 °F 38.7 °F
Humidity: 87% 72% 83%
Wind Speed: 12.1mph 0mph 3.2mph
Wind Gust: 17mph - -
Wind- - West
Pressure: 30.3 in 30.2 in -
Precipitation: 0 in    
Historical Graphs
 
 
Tabular Data for April 18, 2020
Time Temperature Dew Point Pressure Wind Wind Speed Wind Gust Humidity Rainfall Rate (Hourly) solar
00:01 43.9 °F 39.9 °F 30.2 in NW 4.9 mph 10 mph 86% 0 in 0 W/m2
00:06 43.9 °F 39.9 °F 30.2 in NW 2.9 mph 16 mph 86% 0 in 0 W/m2
00:11 43.9 °F 39.9 °F 30.2 in WSW 4 mph 9 mph 86% 0 in 0 W/m2
00:16 43.9 °F 39.9 °F 30.2 in West 11 mph 15 mph 86% 0 in 0 W/m2
00:21 43.9 °F 39.9 °F 30.2 in WNW 6.9 mph 9 mph 86% 0 in 0 W/m2
00:26 43.9 °F 39.9 °F 30.2 in NW 2.9 mph 14 mph 86% 0 in 0 W/m2
00:31 43.9 °F 39.9 °F 30.2 in WNW 2 mph 8 mph 86% 0 in 0 W/m2
00:36 43.9 °F 39.9 °F 30.2 in West 2.9 mph 4 mph 86% 0 in 0 W/m2
00:42 43.9 °F 39.9 °F 30.2 in West 2 mph 8 mph 86% 0 in 0 W/m2
00:47 44.1 °F 40.1 °F 30.2 in NNW 2 mph 10 mph 86% 0 in 0 W/m2
00:52 44.1 °F 40.1 °F 30.2 in West 6.9 mph 7 mph 86% 0 in 0 W/m2
00:57 44.1 °F 40.1 °F 30.2 in WSW 4.9 mph 10 mph 86% 0 in 0 W/m2
01:02 44.1 °F 40.1 °F 30.2 in WNW 2 mph 8 mph 86% 0 in 0 W/m2
01:07 43.9 °F 39.9 °F 30.2 in NW 2 mph 6 mph 86% 0 in 0 W/m2
01:12 43.9 °F 39.9 °F 30.2 in West 0.9 mph 5 mph 86% 0 in 0 W/m2
01:17 43.9 °F 40.3 °F 30.2 in WNW 2.9 mph 8 mph 87% 0 in 0 W/m2
01:22 43.9 °F 40.3 °F 30.2 in NW 2.9 mph 12 mph 87% 0 in 0 W/m2
01:27 43.9 °F 39.9 °F 30.2 in SW 2.9 mph 8 mph 86% 0 in 0 W/m2
01:32 43.9 °F 39.9 °F 30.2 in NW 0.9 mph 9 mph 86% 0 in 0 W/m2
01:37 43.9 °F 39.9 °F 30.2 in WNW 4.9 mph 9 mph 86% 0 in 0 W/m2
01:42 43.9 °F 39.9 °F 30.2 in NW 2 mph 9 mph 86% 0 in 0 W/m2
01:47 43.7 °F 39.7 °F 30.2 in WNW 6.9 mph 9 mph 86% 0 in 0 W/m2
01:52 43.7 °F 39.7 °F 30.2 in North 8.9 mph 10 mph 86% 0 in 0 W/m2
01:57 43.7 °F 39.7 °F 30.2 in West 2 mph 7 mph 86% 0 in 0 W/m2
02:02 43.5 °F 39.6 °F 30.2 in NW 4.9 mph 10 mph 86% 0 in 0 W/m2
02:07 43.5 °F 39.6 °F 30.2 in WNW 6.9 mph 12 mph 86% 0 in 0 W/m2
02:12 43.5 °F 39.4 °F 30.2 in WSW 4 mph 10 mph 85% 0 in 0 W/m2
02:17 43.5 °F 39.4 °F 30.2 in WNW 2.9 mph 7 mph 85% 0 in 0 W/m2
02:22 43.5 °F 39.4 °F 30.2 in WNW 8.1 mph 10 mph 85% 0 in 0 W/m2
02:27 43.5 °F 39.4 °F 30.2 in NW 6.9 mph 15 mph 85% 0 in 0 W/m2
02:33 43.5 °F 39.4 °F 30.2 in West 12.1 mph 12 mph 85% 0 in 0 W/m2
02:38 43.5 °F 39.4 °F 30.2 in West 11 mph 15 mph 85% 0 in 0 W/m2
02:43 43.3 °F 39.2 °F 30.2 in West 2.9 mph 7 mph 85% 0 in 0 W/m2
02:48 43.3 °F 39.2 °F 30.2 in WNW 2 mph 16 mph 85% 0 in 0 W/m2
02:53 43.3 °F 39.2 °F 30.2 in West 8.9 mph 11 mph 85% 0 in 0 W/m2
02:58 43.3 °F 39.2 °F 30.2 in WNW 4.9 mph 14 mph 85% 0 in 0 W/m2
03:03 43.2 °F 39 °F 30.2 in WSW 4.9 mph 17 mph 85% 0 in 0 W/m2
03:08 43.2 °F 39 °F 30.2 in NW 6.9 mph 11 mph 85% 0 in 0 W/m2
03:13 43 °F 38.8 °F 30.2 in NNW 8.1 mph 17 mph 85% 0 in 0 W/m2
03:18 43 °F 38.8 °F 30.2 in WNW 2 mph 11 mph 85% 0 in 0 W/m2
03:23 42.8 °F 38.7 °F 30.2 in WNW 6 mph 13 mph 85% 0 in 0 W/m2
03:28 42.6 °F 38.5 °F 30.2 in NW 8.1 mph 10 mph 85% 0 in 0 W/m2
03:33 42.6 °F 38.5 °F 30.2 in WSW 4 mph 10 mph 85% 0 in 0 W/m2
03:38 42.4 °F 38.5 °F 30.2 in West 2 mph 11 mph 86% 0 in 0 W/m2
03:43 42.4 °F 38.5 °F 30.2 in NW 8.1 mph 13 mph 86% 0 in 0 W/m2
03:48 42.3 °F 38.3 °F 30.2 in WSW 2.9 mph 16 mph 86% 0 in 0 W/m2
03:53 42.3 °F 38.3 °F 30.2 in West 2.9 mph 9 mph 86% 0 in 0 W/m2
03:58 42.1 °F 38.1 °F 30.2 in NW 4 mph 16 mph 86% 0 in 0 W/m2
04:03 42.1 °F 38.1 °F 30.2 in West 2 mph 6 mph 86% 0 in 0 W/m2
04:08 42.1 °F 38.1 °F 30.3 in West 2.9 mph 14 mph 86% 0 in 0 W/m2
04:13 42.1 °F 38.1 °F 30.3 in NW 8.1 mph 8 mph 86% 0 in 0 W/m2
04:18 41.9 °F 37.9 °F 30.3 in West 2 mph 13 mph 86% 0 in 0 W/m2
04:23 41.9 °F 37.9 °F 30.3 in WNW 2 mph 3 mph 86% 0 in 0 W/m2
04:28 41.7 °F 37.8 °F 30.3 in WNW 2.9 mph 10 mph 86% 0 in 0 W/m2
04:33 41.5 °F 37.6 °F 30.3 in WNW 4 mph 4 mph 86% 0 in 0 W/m2
04:38 41.5 °F 37.9 °F 30.3 in WSW 2 mph 9 mph 87% 0 in 0 W/m2
04:43 41.5 °F 37.9 °F 30.3 in WNW 2.9 mph 6 mph 87% 0 in 0 W/m2
04:48 41.4 °F 37.8 °F 30.3 in WNW 4 mph 9 mph 87% 0 in 0 W/m2
04:53 41.4 °F 37.8 °F 30.3 in West 0.9 mph 4 mph 87% 0 in 0 W/m2
04:58 41.4 °F 37.8 °F 30.3 in West 2 mph 10 mph 87% 0 in 0 W/m2
05:03 41.4 °F 37.8 °F 30.3 in NNW 11 mph 11 mph 87% 0 in 0 W/m2
05:08 41.4 °F 37.8 °F 30.3 in WSW 2.9 mph 3 mph 87% 0 in 0 W/m2
05:13 41.4 °F 37.8 °F 30.3 in West 8.1 mph 11 mph 87% 0 in 0 W/m2
05:18 41.4 °F 37.8 °F 30.3 in NW 4 mph 4 mph 87% 0 in 0 W/m2
05:23 41.4 °F 37.8 °F 30.3 in West 4 mph 8 mph 87% 0 in 0 W/m2
05:28 41.4 °F 37.8 °F 30.3 in NNW 4 mph 5 mph 87% 0 in 0 W/m2
05:33 41.2 °F 37.6 °F 30.3 in WSW 2 mph 8 mph 87% 0 in 0 W/m2
05:38 41.2 °F 37.6 °F 30.3 in West 6.9 mph 12 mph 87% 0 in 0 W/m2
05:43 41.2 °F 37.6 °F 30.3 in WNW 4 mph 8 mph 87% 0 in 0 W/m2
05:48 41.2 °F 37.6 °F 30.3 in SW 4.9 mph 7 mph 87% 0 in 0 W/m2
05:53 41.2 °F 37.6 °F 30.3 in NW 4 mph 11 mph 87% 0 in 0 W/m2
05:58 41.2 °F 37.6 °F 30.3 in SW 4.9 mph 5 mph 87% 0 in 0 W/m2
06:03 41.2 °F 37.6 °F 30.3 in SW 4 mph 8 mph 87% 0 in 0 W/m2
06:08 41.2 °F 37.6 °F 30.3 in WNW 2 mph 7 mph 87% 0 in 0 W/m2
06:13 41.2 °F 37.6 °F 30.3 in West 6 mph 6 mph 87% 0 in 0 W/m2
06:18 41.2 °F 37.6 °F 30.3 in West 2.9 mph 4 mph 87% 0 in 0 W/m2
06:23 41.2 °F 37.6 °F 30.3 in WNW 2 mph 7 mph 87% 0 in 0 W/m2
06:28 41.2 °F 37.6 °F 30.3 in West 2 mph 4 mph 87% 0 in 0 W/m2
06:33 41.2 °F 37.6 °F 30.3 in NW 4 mph 7 mph 87% 0 in 0 W/m2
06:38 41.2 °F 37.6 °F 30.3 in Calm   8 mph 87% 0 in 0 W/m2
06:43 41.2 °F 37.6 °F 30.3 in West 2.9 mph 7 mph 87% 0 in 0 W/m2
06:48 41 °F 37.4 °F 30.3 in WNW 4 mph 10 mph 87% 0 in 0 W/m2
06:53 41 °F 37.4 °F 30.3 in West 2 mph 6 mph 87% 0 in 0 W/m2
06:58 41 °F 37.4 °F 30.3 in West 2.9 mph 10 mph 87% 0 in 0 W/m2
07:03 41 °F 37.4 °F 30.3 in WSW 4 mph 9 mph 87% 0 in 0 W/m2
07:08 41 °F 37.4 °F 30.3 in NW 2.9 mph 9 mph 87% 0 in 0 W/m2
07:13 41 °F 37.4 °F 30.3 in WSW 2.9 mph 6 mph 87% 0 in 0 W/m2
07:18 41 °F 37.4 °F 30.3 in WNW 4 mph 8 mph 87% 0 in 0 W/m2
07:23 41 °F 37.4 °F 30.3 in NW 2 mph 4 mph 87% 0 in 0 W/m2
07:28 41 °F 37.4 °F 30.3 in WSW 0.9 mph 3 mph 87% 0 in 0 W/m2
07:33 41 °F 37.4 °F 30.3 in West 0.9 mph 8 mph 87% 0 in 0 W/m2
07:38 41 °F 37.4 °F 30.3 in NNW 4.9 mph 7 mph 87% 0 in 0 W/m2
07:43 41 °F 37.4 °F 30.3 in WNW 2 mph 13 mph 87% 0 in 0 W/m2
07:48 41 °F 37.4 °F 30.3 in North 0.9 mph 7 mph 87% 0 in 0 W/m2
07:53 41 °F 37.4 °F 30.3 in NNW 0.9 mph 13 mph 87% 0 in 0 W/m2
07:58 40.8 °F 37.2 °F 30.3 in West 0.9 mph 4 mph 87% 0 in 5 W/m2
08:03 40.8 °F 37.2 °F 30.3 in WSW 0.9 mph 6 mph 87% 0 in 5 W/m2
08:08 40.8 °F 37.2 °F 30.3 in WSW 2.9 mph 6 mph 87% 0 in 9 W/m2
08:13 40.8 °F 37.2 °F 30.3 in WNW 0.9 mph 2 mph 87% 0 in 11 W/m2
08:19 41 °F 37.4 °F 30.3 in West 2 mph 4 mph 87% 0 in 11 W/m2
08:24 41 °F 37.4 °F 30.3 in West 6 mph 13 mph 87% 0 in 12 W/m2
08:29 41 °F 37.4 °F 30.3 in WSW 6.9 mph 7 mph 87% 0 in 21 W/m2
08:34 41 °F 37.4 °F 30.3 in West 2 mph 9 mph 87% 0 in 23 W/m2
08:39 41 °F 37.4 °F 30.3 in NNW 0.9 mph 5 mph 87% 0 in 28 W/m2
08:44 41 °F 37.2 °F 30.3 in NW 0.9 mph 7 mph 86% 0 in 35 W/m2
08:49 41 °F 37.2 °F 30.3 in WSW 0.9 mph 8 mph 86% 0 in 25 W/m2
08:54 41 °F 37.4 °F 30.3 in WSW 0.9 mph 4 mph 87% 0 in 30 W/m2
08:59 41 °F 37.2 °F 30.3 in NW 2 mph 9 mph 86% 0 in 39 W/m2
09:04 41 °F 37.4 °F 30.3 in NW 2 mph 5 mph 87% 0 in 63 W/m2
09:09 41 °F 37.4 °F 30.3 in NW 2 mph 7 mph 87% 0 in 62 W/m2
09:14 41.2 °F 37.6 °F 30.3 in WNW 0.9 mph 2 mph 87% 0 in 67 W/m2
09:19 41.2 °F 37.4 °F 30.3 in West 2.9 mph 6 mph 86% 0 in 70 W/m2
09:24 41.2 °F 37.6 °F 30.3 in WNW 4 mph 4 mph 87% 0 in 88 W/m2
09:29 41.4 °F 37.6 °F 30.3 in West 8.1 mph 8 mph 86% 0 in 58 W/m2
09:34 41.4 °F 37.6 °F 30.3 in WNW 2 mph 9 mph 86% 0 in 54 W/m2
09:39 41.4 °F 37.6 °F 30.3 in WNW 4 mph 4 mph 86% 0 in 72 W/m2
09:44 41.4 °F 37.6 °F 30.3 in WNW 12.1 mph 12 mph 86% 0 in 62 W/m2
09:49 41.4 °F 37.6 °F 30.3 in Calm   6 mph 86% 0 in 58 W/m2
09:54 41.4 °F 37.6 °F 30.3 in ESE 12 mph 12 mph 86% 0 in 63 W/m2
09:59 41.4 °F 37.6 °F 30.3 in WNW 4 mph 7 mph 86% 0 in 58 W/m2
10:04 41.4 °F 37.6 °F 30.3 in WNW 4.9 mph 5 mph 86% 0 in 58 W/m2
10:09 41.5 °F 37.6 °F 30.3 in WNW 4 mph 7 mph 86% 0 in 77 W/m2
10:14 41.5 °F 37.6 °F 30.3 in WSW 2 mph 4 mph 86% 0 in 127 W/m2
10:19 41.5 °F 37.6 °F 30.3 in West 0.9 mph 8 mph 86% 0 in 130 W/m2
10:24 41.7 °F 37.8 °F 30.3 in SW 8.9 mph 9 mph 86% 0 in 109 W/m2
10:29 41.7 °F 37.8 °F 30.3 in WSW 0.9 mph 10 mph 86% 0 in 104 W/m2
10:34 41.7 °F 37.6 °F 30.3 in West 4 mph 10 mph 85% 0 in 113 W/m2
10:39 41.7 °F 37.8 °F 30.3 in WNW 2 mph 7 mph 86% 0 in 156 W/m2
10:44 42.1 °F 38.1 °F 30.3 in ESE 2 mph 10 mph 86% 0 in 204 W/m2
10:49 42.3 °F 38.3 °F 30.3 in SE 2 mph 10 mph 86% 0 in 148 W/m2
10:54 42.3 °F 38.1 °F 30.3 in WNW 8.1 mph 9 mph 85% 0 in 206 W/m2
10:59 42.4 °F 38.3 °F 30.3 in West 2 mph 5 mph 85% 0 in 276 W/m2
11:04 42.6 °F 38.5 °F 30.3 in West 0.9 mph 4 mph 85% 0 in 188 W/m2
11:09 43 °F 38.5 °F 30.3 in West 2.9 mph 7 mph 84% 0 in 197 W/m2
11:15 43.2 °F 38.3 °F 30.3 in NNW 2 mph 7 mph 83% 0 in 181 W/m2
11:20 43.2 °F 38.3 °F 30.3 in WNW 2 mph 8 mph 83% 0 in 146 W/m2
11:25 43.2 °F 38.3 °F 30.3 in NNW 2 mph 9 mph 83% 0 in 162 W/m2
11:30 43.2 °F 38.3 °F 30.3 in North 0.9 mph 7 mph 83% 0 in 239 W/m2
11:35 43.3 °F 38.5 °F 30.3 in NNW 2.9 mph 7 mph 83% 0 in 262 W/m2
11:40 43.5 °F 38.7 °F 30.3 in NNW 2 mph 4 mph 83% 0 in 216 W/m2
11:45 43.9 °F 38.7 °F 30.3 in NE 4 mph 7 mph 82% 0 in 135 W/m2
11:50 44.1 °F 38.7 °F 30.3 in WNW 2.9 mph 6 mph 81% 0 in 364 W/m2
11:55 44.2 °F 38.8 °F 30.3 in ENE 4 mph 8 mph 81% 0 in 211 W/m2
12:00 44.4 °F 39 °F 30.3 in North 2 mph 4 mph 81% 0 in 218 W/m2
12:05 44.8 °F 39 °F 30.3 in NW 4.9 mph 5 mph 80% 0 in 279 W/m2
12:10 44.8 °F 38.7 °F 30.3 in West 6.9 mph 7 mph 79% 0 in 120 W/m2
12:15 44.8 °F 39 °F 30.3 in NW 4.9 mph 9 mph 80% 0 in 120 W/m2
12:20 44.8 °F 38.7 °F 30.3 in NW 4.9 mph 13 mph 79% 0 in 195 W/m2
12:25 44.4 °F 38.3 °F 30.3 in WNW 4 mph 12 mph 79% 0 in 178 W/m2
12:30 44.4 °F 38.3 °F 30.3 in NW 6 mph 10 mph 79% 0 in 169 W/m2
12:35 44.4 °F 38.3 °F 30.3 in West 2.9 mph 11 mph 79% 0 in 230 W/m2
12:40 44.6 °F 38.5 °F 30.3 in SW 2 mph 6 mph 79% 0 in 216 W/m2
12:45 45 °F 38.5 °F 30.3 in WNW 6.9 mph 11 mph 78% 0 in 213 W/m2
12:50 45.1 °F 39 °F 30.3 in NW 2.9 mph 6 mph 79% 0 in 216 W/m2
12:55 45.3 °F 38.8 °F 30.3 in West 4 mph 11 mph 78% 0 in 190 W/m2
13:00 45.3 °F 38.5 °F 30.3 in WNW 2.9 mph 8 mph 77% 0 in 91 W/m2
13:05 45.3 °F 38.5 °F 30.3 in WNW 2.9 mph 8 mph 77% 0 in 171 W/m2
13:10 45.3 °F 38.8 °F 30.3 in West 0.9 mph 8 mph 78% 0 in 195 W/m2
13:15 45.3 °F 38.8 °F 30.3 in West 6.9 mph 10 mph 78% 0 in 158 W/m2
13:20 45.3 °F 38.5 °F 30.3 in NW 4.9 mph 12 mph 77% 0 in 139 W/m2
13:25 45.3 °F 38.8 °F 30.3 in NNW 2.9 mph 6 mph 78% 0 in 134 W/m2
13:30 45.3 °F 38.8 °F 30.3 in SE 0.9 mph 9 mph 78% 0 in 176 W/m2
13:35 45.7 °F 39.2 °F 30.3 in WNW 2.9 mph 4 mph 78% 0 in 190 W/m2
13:40 45.9 °F 39 °F 30.3 in South 0.9 mph 9 mph 77% 0 in 179 W/m2
13:45 46 °F 39.2 °F 30.3 in West 6.9 mph 7 mph 77% 0 in 264 W/m2
13:50 46.2 °F 38.5 °F 30.3 in West 10.1 mph 10 mph 74% 0 in 167 W/m2
13:55 46.2 °F 38.1 °F 30.3 in West 2 mph 8 mph 73% 0 in 236 W/m2
14:00 46.4 °F 37.9 °F 30.3 in WNW 4 mph 5 mph 72% 0 in 151 W/m2
14:05 46.4 °F 37.9 °F 30.3 in NNE 0.9 mph 4 mph 72% 0 in 179 W/m2
14:11 46.6 °F 38.1 °F 30.3 in NNE 2.9 mph 8 mph 72% 0 in 227 W/m2
14:16 46.6 °F 38.5 °F 30.3 in NW 4.9 mph 7 mph 73% 0 in 171 W/m2
14:21 46.8 °F 38.3 °F 30.3 in NW 10.1 mph 11 mph 72% 0 in 148 W/m2
14:26 46.8 °F 38.5 °F 30.3 in NNE 0.9 mph 8 mph 73% 0 in 116 W/m2
14:31 46.8 °F 38.3 °F 30.3 in WNW 2 mph 12 mph 72% 0 in 146 W/m2
14:36 46.6 °F 38.5 °F 30.3 in NW 2 mph 7 mph 73% 0 in 135 W/m2
14:41 46.6 °F 38.5 °F 30.3 in WSW 0.9 mph 11 mph 73% 0 in 104 W/m2
14:46 46.4 °F 38.3 °F 30.3 in SW 0.9 mph 10 mph 73% 0 in 44 W/m2
14:51 46.4 °F 38.3 °F 30.3 in Calm   4 mph 73% 0 in 83 W/m2
14:56 46.2 °F 38.5 °F 30.3 in SW 0.9 mph 9 mph 74% 0 in 60 W/m2
15:01 46.2 °F 38.5 °F 30.3 in WSW 4 mph 6 mph 74% 0 in 84 W/m2
15:06 46.2 °F 38.5 °F 30.3 in South 6.9 mph 8 mph 74% 0 in 130 W/m2
15:11 46.4 °F 38.5 °F 30.3 in WNW 8.1 mph 8 mph 74% 0 in 91 W/m2
15:16 46.6 °F 38.7 °F 30.3 in South 2 mph 4 mph 74% 0 in 70 W/m2
15:21 46.6 °F 38.5 °F 30.3 in NW 2 mph 6 mph 73% 0 in 70 W/m2
15:26 46.6 °F 38.7 °F 30.3 in West 2 mph 8 mph 74% 0 in 49 W/m2
15:31 46.8 °F 38.8 °F 30.3 in South 0.9 mph 6 mph 74% 0 in 95 W/m2
15:36 46.8 °F 38.8 °F 30.3 in NNW 0.9 mph 6 mph 74% 0 in 65 W/m2
15:41 46.8 °F 38.8 °F 30.3 in SSW 4.9 mph 10 mph 74% 0 in 70 W/m2
15:46 46.8 °F 38.5 °F 30.3 in NW 2.9 mph 8 mph 73% 0 in 84 W/m2
15:51 46.9 °F 38.7 °F 30.3 in West 6 mph 7 mph 73% 0 in 63 W/m2
15:56 46.9 °F 38.7 °F 30.3 in Calm   5 mph 73% 0 in 70 W/m2
16:01 46.9 °F 38.7 °F 30.3 in North 0.9 mph 3 mph 73% 0 in 54 W/m2
16:06 46.9 °F 38.7 °F 30.3 in SW 2.9 mph 4 mph 73% 0 in 58 W/m2
16:11 46.9 °F 38.7 °F 30.3 in West 2 mph 4 mph 73% 0 in 51 W/m2
16:16 46.9 °F 38.7 °F 30.3 in West 4 mph 4 mph 73% 0 in 60 W/m2
16:22 46.9 °F 39 °F 30.3 in Calm   2 mph 74% 0 in 54 W/m2
16:27 46.9 °F 39 °F 30.3 in WNW 2.9 mph 12 mph 74% 0 in 37 W/m2
16:32 46.9 °F 39 °F 30.3 in North 2 mph 3 mph 74% 0 in 33 W/m2
16:37 46.9 °F 39 °F 30.3 in West 2.9 mph 5 mph 74% 0 in 32 W/m2
16:42 46.9 °F 39 °F 30.3 in WNW 0.9 mph 8 mph 74% 0 in 35 W/m2
16:47 46.8 °F 38.8 °F 30.3 in WSW 0.9 mph 4 mph 74% 0 in 25 W/m2
16:52 46.8 °F 38.8 °F 30.3 in SSW 4 mph 5 mph 74% 0 in 26 W/m2
16:57 46.8 °F 38.8 °F 30.3 in WNW 4 mph 5 mph 74% 0 in 35 W/m2
17:02 46.8 °F 38.8 °F 30.3 in ENE 2 mph 5 mph 74% 0 in 26 W/m2
17:07 46.8 °F 38.8 °F 30.3 in West 0.9 mph 12 mph 74% 0 in 25 W/m2
17:12 46.8 °F 39.2 °F 30.3 in NNW 2.9 mph 4 mph 75% 0 in 19 W/m2
17:18 46.6 °F 39.4 °F 30.3 in West 2 mph 8 mph 76% 0 in 28 W/m2
17:23 46.4 °F 39.2 °F 30.3 in SSW 4 mph 9 mph 76% 0 in 14 W/m2
17:28 46.2 °F 39 °F 30.3 in NW 0.9 mph 7 mph 76% 0 in 14 W/m2
17:33 46.2 °F 39 °F 30.3 in WNW 2.9 mph 9 mph 76% 0 in 16 W/m2
17:38 46 °F 38.8 °F 30.3 in WNW 4 mph 5 mph 76% 0 in 11 W/m2
17:43 45.9 °F 38.7 °F 30.3 in West 6 mph 6 mph 76% 0 in 9 W/m2
17:48 45.9 °F 39 °F 30.3 in SSW 4.9 mph 9 mph 77% 0 in 5 W/m2
17:53 45.7 °F 38.8 °F 30.3 in WNW 2.9 mph 6 mph 77% 0 in 0 W/m2
17:58 45.7 °F 39.2 °F 30.3 in West 0.9 mph 9 mph 78% 0 in 0 W/m2
18:03 45.7 °F 39.6 °F 30.3 in West 2 mph 4 mph 79% 0 in 0 W/m2
18:08 45.3 °F 39.6 °F 30.3 in North 2.9 mph 3 mph 80% 0 in 0 W/m2
18:13 45.1 °F 39.4 °F 30.3 in Calm   2 mph 80% 0 in 0 W/m2
18:18 45.1 °F 39.7 °F 30.3 in NE 4 mph 4 mph 81% 0 in 0 W/m2
18:23 45 °F 39.6 °F 30.3 in West 2 mph 8 mph 81% 0 in 0 W/m2
18:28 45 °F 39.6 °F 30.3 in East 0.9 mph 3 mph 81% 0 in 0 W/m2
18:33 45 °F 39.6 °F 30.3 in West 0.9 mph 8 mph 81% 0 in 0 W/m2
18:38 45 °F 39.6 °F 30.3 in Calm   1 mph 81% 0 in 0 W/m2
18:43 45 °F 39.6 °F 30.3 in ESE 2 mph 2 mph 81% 0 in 0 W/m2
18:48 44.8 °F 39.4 °F 30.3 in Calm   1 mph 81% 0 in 0 W/m2
18:53 44.8 °F 39.6 °F 30.3 in NW 2.9 mph 4 mph 82% 0 in 0 W/m2
18:58 44.8 °F 39.6 °F 30.3 in North 0.9 mph 2 mph 82% 0 in 0 W/m2
19:03 44.8 °F 39.6 °F 30.2 in NE 2 mph 2 mph 82% 0 in 0 W/m2
19:08 44.8 °F 39.6 °F 30.2 in NNW 2 mph 3 mph 82% 0 in 0 W/m2
19:13 44.6 °F 39.4 °F 30.2 in Calm   4 mph 82% 0 in 0 W/m2
19:18 44.8 °F 39.6 °F 30.2 in Calm   8 mph 82% 0 in 0 W/m2
19:23 44.8 °F 39.6 °F 30.2 in NW 2 mph 4 mph 82% 0 in 0 W/m2
19:28 44.8 °F 39.6 °F 30.2 in North 0.9 mph 8 mph 82% 0 in 0 W/m2
19:33 44.8 °F 39.6 °F 30.2 in NNE 0.9 mph 3 mph 82% 0 in 0 W/m2
19:38 44.8 °F 39.6 °F 30.2 in WNW 2.9 mph 5 mph 82% 0 in 0 W/m2
19:43 44.8 °F 39.6 °F 30.2 in West 0.9 mph 2 mph 82% 0 in 0 W/m2
19:48 44.8 °F 39.6 °F 30.2 in NE 2 mph 4 mph 82% 0 in 0 W/m2
19:53 44.8 °F 39.6 °F 30.2 in NW 2 mph 4 mph 82% 0 in 0 W/m2
19:58 44.8 °F 39.6 °F 30.2 in NW 0.9 mph 2 mph 82% 0 in 0 W/m2
20:03 45 °F 39.6 °F 30.2 in NNE 2 mph 2 mph 81% 0 in 0 W/m2
20:08 45 °F 39.6 °F 30.2 in North 2 mph 4 mph 81% 0 in 0 W/m2
20:13 45 °F 39.6 °F 30.2 in NW 0.9 mph 3 mph 81% 0 in 0 W/m2
20:18 45 °F 39.6 °F 30.2 in NNW 2 mph 3 mph 81% 0 in 0 W/m2
20:23 45 °F 39.6 °F 30.2 in West 6 mph 8 mph 81% 0 in 0 W/m2
20:28 45 °F 39.6 °F 30.2 in NW 2 mph 4 mph 81% 0 in 0 W/m2
20:33 45 °F 39.6 °F 30.2 in NNW 2 mph 2 mph 81% 0 in 0 W/m2
20:38 45 °F 39.6 °F 30.2 in WSW 2 mph 5 mph 81% 0 in 0 W/m2
20:43 45 °F 39.6 °F 30.2 in West 4 mph 6 mph 81% 0 in 0 W/m2
20:48 44.8 °F 39.4 °F 30.2 in SSE 0.9 mph 4 mph 81% 0 in 0 W/m2
20:53 44.8 °F 39.4 °F 30.2 in Calm   4 mph 81% 0 in 0 W/m2
20:58 44.6 °F 39.2 °F 30.2 in NW 2.9 mph 5 mph 81% 0 in 0 W/m2
21:03 44.6 °F 39.4 °F 30.2 in NW 4 mph 5 mph 82% 0 in 0 W/m2
21:08 44.4 °F 39.2 °F 30.2 in NW 4 mph 6 mph 82% 0 in 0 W/m2
21:13 44.4 °F 39.2 °F 30.2 in Calm   3 mph 82% 0 in 0 W/m2
21:18 44.2 °F 39 °F 30.2 in NW 4 mph 4 mph 82% 0 in 0 W/m2
21:23 44.2 °F 39 °F 30.2 in WNW 2.9 mph 6 mph 82% 0 in 0 W/m2
21:28 44.2 °F 39.4 °F 30.2 in West 2.9 mph 6 mph 83% 0 in 0 W/m2
21:33 44.2 °F 39.4 °F 30.2 in ENE 2.9 mph 4 mph 83% 0 in 0 W/m2
21:38 44.1 °F 39.2 °F 30.2 in WNW 2 mph 3 mph 83% 0 in 0 W/m2
21:43 44.1 °F 39.2 °F 30.2 in West 2 mph 4 mph 83% 0 in 0 W/m2
21:48 43.9 °F 39 °F 30.2 in West 2 mph 5 mph 83% 0 in 0 W/m2
21:53 43.9 °F 39.4 °F 30.2 in WNW 2.9 mph 4 mph 84% 0 in 0 W/m2
21:58 43.7 °F 39.2 °F 30.2 in NE 2.9 mph 3 mph 84% 0 in 0 W/m2
22:03 43.5 °F 39 °F 30.2 in Calm   2 mph 84% 0 in 0 W/m2
22:09 43.5 °F 39 °F 30.2 in West 0.9 mph 8 mph 84% 0 in 0 W/m2
22:14 43.3 °F 38.8 °F 30.2 in West 2.9 mph 4 mph 84% 0 in 0 W/m2
22:19 43.3 °F 39.2 °F 30.2 in NW 2.9 mph 8 mph 85% 0 in 0 W/m2
22:24 43.3 °F 39.2 °F 30.2 in NW 0.9 mph 3 mph 85% 0 in 0 W/m2
22:29 43.2 °F 39 °F 30.2 in North 0.9 mph 1 mph 85% 0 in 0 W/m2
22:34 43.2 °F 39 °F 30.2 in Calm   2 mph 85% 0 in 0 W/m2
22:39 43.2 °F 39 °F 30.2 in North 0.9 mph 4 mph 85% 0 in 0 W/m2
22:44 43 °F 38.8 °F 30.2 in NNW 0.9 mph 2 mph 85% 0 in 0 W/m2
22:49 43 °F 38.8 °F 30.2 in North 2.9 mph 4 mph 85% 0 in 0 W/m2
22:54 43 °F 39 °F 30.2 in WNW 4.9 mph 10 mph 86% 0 in 0 W/m2
22:59 43.2 °F 39.2 °F 30.2 in NNW 4 mph 4 mph 86% 0 in 0 W/m2
23:04 43.2 °F 39 °F 30.2 in West 2.9 mph 8 mph 85% 0 in 0 W/m2
23:09 43 °F 38.8 °F 30.2 in NE 2 mph 9 mph 85% 0 in 0 W/m2
23:14 43 °F 39 °F 30.2 in NNW 4 mph 5 mph 86% 0 in 0 W/m2
23:19 43 °F 39 °F 30.2 in SW 2.9 mph 7 mph 86% 0 in 0 W/m2
23:24 43 °F 39 °F 30.2 in West 0.9 mph 7 mph 86% 0 in 0 W/m2
23:29 43 °F 39 °F 30.2 in West 2.9 mph 7 mph 86% 0 in 0 W/m2
23:34 43 °F 39 °F 30.2 in ESE 2 mph 7 mph 86% 0 in 0 W/m2
23:39 43 °F 39 °F 30.2 in NW 2.9 mph 5 mph 86% 0 in 0 W/m2
23:44 43.2 °F 39.2 °F 30.2 in NNW 4 mph 4 mph 86% 0 in 0 W/m2
23:49 43.2 °F 39.2 °F 30.2 in NW 4 mph 5 mph 86% 0 in 0 W/m2
23:54 43.2 °F 39.6 °F 30.2 in WNW 4 mph 8 mph 87% 0 in 0 W/m2
23:59 43.2 °F 39.6 °F 30.2 in East 2 mph 4 mph 87% 0 in 0 W/m2
Juneau County Weather
Compliments of Weather Underground - 4 mb